Gosnold, Massachusetts
Current Conditions -  °F | °C
As of 8:53 PM on Thursday 27 Nov 2014 (Local Time) from KMVY Reporting Station
Overcast Overcast  
Wind Chill: 30°   Ceiling: 800
Heat Index: 36°   Visibility: 10mi
Dew Point: 35°   Wind: 8mph
Humidity: 97%   Direction: 360°N
Pressure: 29.96"   Gusts: NA
Location:  41.4796°N, 70.7571°W
Report Text: KMVY 280153Z AUTO 36007KT 10SM BKN008 BKN012 OVC050 02/02 A2996 RMK AO2 RAE34 SLP145 P0000 T00220017
Loading
Personal Weather Stations






























Interactive Weather Map New forecast layout! Learn more

10-Day Weather Forecast

Advertisements
Track Severe Weather on mobile